Millinocket, Maine
Current Conditions -  °F | °C
As of 3:53 PM on Thursday 23 Oct 2014 (Local Time) from KMLT Reporting Station
Light Rain Light Rain  
Wind Chill: 42°   Ceiling: 1800
Heat Index: 47°   Visibility: 2.5mi
Dew Point: 45°   Wind: 12mph
Humidity: 93%   Direction: 40°NE
Pressure: 29.95"   Gusts: NA
Location:  45.66°N, 68.71°W
Report Text: KMLT 231953Z AUTO 04010KT 2 1/2SM -RA BR FEW010 OVC018 08/07 A2995 RMK AO2 VIS 2V4 RAE01B23 SLP148 P0001 T00830072
Loading
Personal Weather Stations






























Interactive Weather Map New forecast layout! Learn more

10-Day Weather Forecast

Advertisements
Track Severe Weather on mobile